sensor_id;sensor_type;location;lat;lon;timestamp;P1;durP1;ratioP1;P2;durP2;ratioP2
6113;SDS011;3087;48.392;10.836;2022-12-07T00:00:48;9.70;;;6.83;;
6113;SDS011;3087;48.392;10.836;2022-12-07T00:03:14;8.33;;;6.70;;
6113;SDS011;3087;48.392;10.836;2022-12-07T00:05:40;10.70;;;7.47;;
6113;SDS011;3087;48.392;10.836;2022-12-07T00:08:06;8.23;;;6.50;;
6113;SDS011;3087;48.392;10.836;2022-12-07T00:10:35;8.27;;;6.23;;
6113;SDS011;3087;48.392;10.836;2022-12-07T00:13:00;8.67;;;6.53;;
6113;SDS011;3087;48.392;10.836;2022-12-07T00:15:26;8.20;;;6.50;;
6113;SDS011;3087;48.392;10.836;2022-12-07T00:17:52;7.70;;;6.50;;
6113;SDS011;3087;48.392;10.836;2022-12-07T00:20:18;7.50;;;6.67;;
6113;SDS011;3087;48.392;10.836;2022-12-07T00:22:44;8.57;;;7.00;;
6113;SDS011;3087;48.392;10.836;2022-12-07T00:25:10;7.73;;;6.40;;
6113;SDS011;3087;48.392;10.836;2022-12-07T00:27:36;9.70;;;7.47;;
6113;SDS011;3087;48.392;10.836;2022-12-07T00:30:01;8.63;;;7.30;;
6113;SDS011;3087;48.392;10.836;2022-12-07T00:32:27;8.00;;;6.93;;
6113;SDS011;3087;48.392;10.836;2022-12-07T00:34:53;7.80;;;7.00;;
6113;SDS011;3087;48.392;10.836;2022-12-07T00:37:19;8.73;;;6.33;;
6113;SDS011;3087;48.392;10.836;2022-12-07T00:39:45;7.33;;;6.57;;
6113;SDS011;3087;48.392;10.836;2022-12-07T00:42:11;8.17;;;6.13;;
6113;SDS011;3087;48.392;10.836;2022-12-07T00:44:36;7.73;;;6.77;;
6113;SDS011;3087;48.392;10.836;2022-12-07T00:47:02;8.87;;;6.93;;
6113;SDS011;3087;48.392;10.836;2022-12-07T00:49:27;7.43;;;5.87;;
6113;SDS011;3087;48.392;10.836;2022-12-07T00:51:53;7.30;;;6.47;;
6113;SDS011;3087;48.392;10.836;2022-12-07T00:54:19;7.10;;;6.40;;
6113;SDS011;3087;48.392;10.836;2022-12-07T00:56:45;7.73;;;6.47;;
6113;SDS011;3087;48.392;10.836;2022-12-07T00:59:12;7.13;;;6.20;;
6113;SDS011;3087;48.392;10.836;2022-12-07T01:01:40;8.83;;;6.97;;
6113;SDS011;3087;48.392;10.836;2022-12-07T01:04:06;8.90;;;6.33;;
6113;SDS011;3087;48.392;10.836;2022-12-07T01:06:32;8.30;;;6.73;;
6113;SDS011;3087;48.392;10.836;2022-12-07T01:08:57;7.47;;;6.27;;
6113;SDS011;3087;48.392;10.836;2022-12-07T01:11:25;8.97;;;6.20;;
6113;SDS011;3087;48.392;10.836;2022-12-07T01:13:52;7.97;;;6.40;;
6113;SDS011;3087;48.392;10.836;2022-12-07T01:16:20;7.97;;;6.90;;
6113;SDS011;3087;48.392;10.836;2022-12-07T01:18:47;7.37;;;6.37;;
6113;SDS011;3087;48.392;10.836;2022-12-07T01:23:47;8.60;;;7.20;;
6113;SDS011;3087;48.392;10.836;2022-12-07T01:26:14;9.77;;;6.33;;
6113;SDS011;3087;48.392;10.836;2022-12-07T01:28:42;14.47;;;7.27;;
6113;SDS011;3087;48.392;10.836;2022-12-07T01:31:11;9.37;;;7.90;;
6113;SDS011;3087;48.392;10.836;2022-12-07T01:33:43;7.83;;;6.77;;
6113;SDS011;3087;48.392;10.836;2022-12-07T01:36:18;8.63;;;7.07;;
6113;SDS011;3087;48.392;10.836;2022-12-07T01:38:46;11.17;;;6.93;;
6113;SDS011;3087;48.392;10.836;2022-12-07T01:41:13;9.73;;;6.50;;
6113;SDS011;3087;48.392;10.836;2022-12-07T01:46:44;8.93;;;7.10;;
6113;SDS011;3087;48.392;10.836;2022-12-07T01:49:14;7.93;;;6.60;;
6113;SDS011;3087;48.392;10.836;2022-12-07T01:51:50;7.53;;;6.60;;
6113;SDS011;3087;48.392;10.836;2022-12-07T01:54:18;7.50;;;6.20;;
6113;SDS011;3087;48.392;10.836;2022-12-07T01:56:48;7.63;;;6.10;;
6113;SDS011;3087;48.392;10.836;2022-12-07T01:59:18;8.53;;;7.20;;
6113;SDS011;3087;48.392;10.836;2022-12-07T02:01:46;8.43;;;7.23;;
6113;SDS011;3087;48.392;10.836;2022-12-07T02:04:12;7.63;;;6.80;;
6113;SDS011;3087;48.392;10.836;2022-12-07T02:06:38;7.40;;;6.50;;
6113;SDS011;3087;48.392;10.836;2022-12-07T02:09:04;7.63;;;6.53;;
6113;SDS011;3087;48.392;10.836;2022-12-07T02:11:30;8.40;;;6.60;;
6113;SDS011;3087;48.392;10.836;2022-12-07T02:13:56;7.60;;;6.80;;
6113;SDS011;3087;48.392;10.836;2022-12-07T02:27:39;7.30;;;6.47;;
6113;SDS011;3087;48.392;10.836;2022-12-07T02:30:15;8.57;;;7.07;;
6113;SDS011;3087;48.392;10.836;2022-12-07T02:40:52;8.03;;;6.60;;
6113;SDS011;3087;48.392;10.836;2022-12-07T02:43:24;7.33;;;6.60;;
6113;SDS011;3087;48.392;10.836;2022-12-07T02:45:57;8.13;;;6.33;;
6113;SDS011;3087;48.392;10.836;2022-12-07T02:48:27;9.50;;;6.80;;
6113;SDS011;3087;48.392;10.836;2022-12-07T02:50:54;8.53;;;7.17;;
6113;SDS011;3087;48.392;10.836;2022-12-07T02:53:36;7.20;;;6.50;;
6113;SDS011;3087;48.392;10.836;2022-12-07T02:59:27;7.40;;;6.20;;
6113;SDS011;3087;48.392;10.836;2022-12-07T03:04:48;7.77;;;7.03;;
6113;SDS011;3087;48.392;10.836;2022-12-07T03:12:44;8.50;;;6.70;;
6113;SDS011;3087;48.392;10.836;2022-12-07T03:18:05;8.17;;;6.30;;
6113;SDS011;3087;48.392;10.836;2022-12-07T03:20:32;8.27;;;7.00;;
6113;SDS011;3087;48.392;10.836;2022-12-07T03:23:00;7.87;;;6.83;;
6113;SDS011;3087;48.392;10.836;2022-12-07T03:25:28;7.87;;;6.93;;
6113;SDS011;3087;48.392;10.836;2022-12-07T03:27:55;8.17;;;6.97;;
6113;SDS011;3087;48.392;10.836;2022-12-07T03:30:29;7.77;;;6.97;;
6113;SDS011;3087;48.392;10.836;2022-12-07T03:33:10;10.17;;;7.63;;
6113;SDS011;3087;48.392;10.836;2022-12-07T03:35:42;8.00;;;6.97;;
6113;SDS011;3087;48.392;10.836;2022-12-07T03:41:15;7.73;;;6.70;;
6113;SDS011;3087;48.392;10.836;2022-12-07T03:43:41;9.37;;;7.70;;
6113;SDS011;3087;48.392;10.836;2022-12-07T03:46:15;6.97;;;6.27;;
6113;SDS011;3087;48.392;10.836;2022-12-07T03:51:28;8.03;;;7.07;;
6113;SDS011;3087;48.392;10.836;2022-12-07T03:54:13;7.90;;;7.10;;
6113;SDS011;3087;48.392;10.836;2022-12-07T03:56:42;8.27;;;6.70;;
6113;SDS011;3087;48.392;10.836;2022-12-07T03:59:11;8.40;;;6.90;;
6113;SDS011;3087;48.392;10.836;2022-12-07T04:01:38;9.77;;;7.93;;
6113;SDS011;3087;48.392;10.836;2022-12-07T04:04:06;8.93;;;6.80;;
6113;SDS011;3087;48.392;10.836;2022-12-07T04:06:32;8.63;;;7.13;;
6113;SDS011;3087;48.392;10.836;2022-12-07T04:08:58;8.47;;;7.60;;
6113;SDS011;3087;48.392;10.836;2022-12-07T04:11:24;9.17;;;7.50;;
6113;SDS011;3087;48.392;10.836;2022-12-07T04:13:50;7.90;;;6.53;;
6113;SDS011;3087;48.392;10.836;2022-12-07T04:16:34;7.80;;;6.80;;
6113;SDS011;3087;48.392;10.836;2022-12-07T04:19:00;7.77;;;6.87;;
6113;SDS011;3087;48.392;10.836;2022-12-07T04:21:26;9.33;;;6.87;;
6113;SDS011;3087;48.392;10.836;2022-12-07T04:23:52;8.57;;;7.47;;
6113;SDS011;3087;48.392;10.836;2022-12-07T04:26:17;8.70;;;7.23;;
6113;SDS011;3087;48.392;10.836;2022-12-07T04:28:43;8.70;;;7.03;;
6113;SDS011;3087;48.392;10.836;2022-12-07T04:31:09;8.53;;;6.97;;
6113;SDS011;3087;48.392;10.836;2022-12-07T04:33:35;8.30;;;7.37;;
6113;SDS011;3087;48.392;10.836;2022-12-07T04:36:01;9.40;;;7.90;;
6113;SDS011;3087;48.392;10.836;2022-12-07T04:38:27;7.93;;;6.80;;
6113;SDS011;3087;48.392;10.836;2022-12-07T04:40:53;8.93;;;7.30;;
6113;SDS011;3087;48.392;10.836;2022-12-07T04:43:19;10.73;;;8.27;;
6113;SDS011;3087;48.392;10.836;2022-12-07T04:45:46;9.90;;;8.30;;
6113;SDS011;3087;48.392;10.836;2022-12-07T04:48:12;9.60;;;7.67;;
6113;SDS011;3087;48.392;10.836;2022-12-07T04:50:38;8.13;;;7.27;;
6113;SDS011;3087;48.392;10.836;2022-12-07T04:53:03;8.87;;;7.23;;
6113;SDS011;3087;48.392;10.836;2022-12-07T04:55:29;8.87;;;7.93;;
6113;SDS011;3087;48.392;10.836;2022-12-07T04:57:55;9.30;;;8.27;;
6113;SDS011;3087;48.392;10.836;2022-12-07T05:00:21;9.77;;;7.90;;
6113;SDS011;3087;48.392;10.836;2022-12-07T05:02:46;9.30;;;8.30;;
6113;SDS011;3087;48.392;10.836;2022-12-07T05:05:12;9.30;;;7.87;;
6113;SDS011;3087;48.392;10.836;2022-12-07T05:07:38;9.73;;;7.17;;
6113;SDS011;3087;48.392;10.836;2022-12-07T05:10:04;10.10;;;7.93;;
6113;SDS011;3087;48.392;10.836;2022-12-07T05:12:30;8.73;;;7.63;;
6113;SDS011;3087;48.392;10.836;2022-12-07T05:14:56;8.37;;;7.43;;
6113;SDS011;3087;48.392;10.836;2022-12-07T05:17:21;10.03;;;8.13;;
6113;SDS011;3087;48.392;10.836;2022-12-07T05:19:47;8.80;;;7.90;;
6113;SDS011;3087;48.392;10.836;2022-12-07T05:22:13;10.33;;;7.50;;
6113;SDS011;3087;48.392;10.836;2022-12-07T05:24:39;8.30;;;7.40;;
6113;SDS011;3087;48.392;10.836;2022-12-07T05:27:04;11.77;;;8.77;;
6113;SDS011;3087;48.392;10.836;2022-12-07T05:29:30;10.23;;;8.40;;
6113;SDS011;3087;48.392;10.836;2022-12-07T05:31:56;10.93;;;9.33;;
6113;SDS011;3087;48.392;10.836;2022-12-07T05:34:22;10.40;;;8.97;;
6113;SDS011;3087;48.392;10.836;2022-12-07T05:36:48;10.73;;;9.27;;
6113;SDS011;3087;48.392;10.836;2022-12-07T05:39:15;9.70;;;8.63;;
6113;SDS011;3087;48.392;10.836;2022-12-07T05:41:41;12.67;;;10.00;;
6113;SDS011;3087;48.392;10.836;2022-12-07T05:44:25;10.13;;;9.00;;
6113;SDS011;3087;48.392;10.836;2022-12-07T05:46:51;12.63;;;9.67;;
6113;SDS011;3087;48.392;10.836;2022-12-07T05:49:17;12.13;;;9.30;;
6113;SDS011;3087;48.392;10.836;2022-12-07T05:51:43;13.40;;;10.57;;
6113;SDS011;3087;48.392;10.836;2022-12-07T05:54:09;11.63;;;9.97;;
6113;SDS011;3087;48.392;10.836;2022-12-07T05:56:35;11.37;;;10.00;;
6113;SDS011;3087;48.392;10.836;2022-12-07T05:59:01;11.37;;;9.50;;
6113;SDS011;3087;48.392;10.836;2022-12-07T06:01:46;11.20;;;9.27;;
6113;SDS011;3087;48.392;10.836;2022-12-07T06:04:12;10.60;;;8.77;;
6113;SDS011;3087;48.392;10.836;2022-12-07T06:06:37;10.77;;;9.20;;
6113;SDS011;3087;48.392;10.836;2022-12-07T06:09:03;12.33;;;9.10;;
6113;SDS011;3087;48.392;10.836;2022-12-07T06:11:29;10.60;;;8.70;;
6113;SDS011;3087;48.392;10.836;2022-12-07T06:14:14;12.47;;;9.83;;
6113;SDS011;3087;48.392;10.836;2022-12-07T06:16:40;12.13;;;9.40;;
6113;SDS011;3087;48.392;10.836;2022-12-07T06:19:05;15.33;;;10.40;;
6113;SDS011;3087;48.392;10.836;2022-12-07T06:21:31;14.00;;;10.17;;
6113;SDS011;3087;48.392;10.836;2022-12-07T06:23:57;14.13;;;10.43;;
6113;SDS011;3087;48.392;10.836;2022-12-07T06:26:23;14.83;;;9.83;;
6113;SDS011;3087;48.392;10.836;2022-12-07T06:28:49;12.97;;;10.40;;
6113;SDS011;3087;48.392;10.836;2022-12-07T06:31:15;12.33;;;9.93;;
6113;SDS011;3087;48.392;10.836;2022-12-07T06:33:41;12.67;;;10.57;;
6113;SDS011;3087;48.392;10.836;2022-12-07T06:36:07;14.83;;;10.47;;
6113;SDS011;3087;48.392;10.836;2022-12-07T06:38:33;11.87;;;10.10;;
6113;SDS011;3087;48.392;10.836;2022-12-07T06:40:59;14.80;;;11.13;;
6113;SDS011;3087;48.392;10.836;2022-12-07T06:43:24;11.77;;;9.83;;
6113;SDS011;3087;48.392;10.836;2022-12-07T06:45:50;12.77;;;10.10;;
6113;SDS011;3087;48.392;10.836;2022-12-07T06:48:16;13.90;;;10.90;;
6113;SDS011;3087;48.392;10.836;2022-12-07T06:50:44;13.77;;;11.83;;
6113;SDS011;3087;48.392;10.836;2022-12-07T06:53:10;15.63;;;12.27;;
6113;SDS011;3087;48.392;10.836;2022-12-07T06:55:36;15.43;;;11.57;;
6113;SDS011;3087;48.392;10.836;2022-12-07T06:58:01;17.50;;;11.77;;
6113;SDS011;3087;48.392;10.836;2022-12-07T07:00:27;16.47;;;12.47;;
6113;SDS011;3087;48.392;10.836;2022-12-07T07:02:54;16.63;;;12.67;;
6113;SDS011;3087;48.392;10.836;2022-12-07T07:05:19;14.57;;;12.30;;
6113;SDS011;3087;48.392;10.836;2022-12-07T07:07:47;17.30;;;12.73;;
6113;SDS011;3087;48.392;10.836;2022-12-07T07:10:13;17.87;;;12.23;;
6113;SDS011;3087;48.392;10.836;2022-12-07T07:12:38;19.47;;;12.70;;
6113;SDS011;3087;48.392;10.836;2022-12-07T07:15:04;15.43;;;12.00;;
6113;SDS011;3087;48.392;10.836;2022-12-07T07:17:30;16.20;;;13.03;;
6113;SDS011;3087;48.392;10.836;2022-12-07T07:19:56;19.90;;;13.07;;
6113;SDS011;3087;48.392;10.836;2022-12-07T07:22:22;17.93;;;12.97;;
6113;SDS011;3087;48.392;10.836;2022-12-07T07:24:48;16.63;;;12.63;;
6113;SDS011;3087;48.392;10.836;2022-12-07T07:27:14;18.20;;;12.23;;
6113;SDS011;3087;48.392;10.836;2022-12-07T07:29:39;25.43;;;18.20;;
6113;SDS011;3087;48.392;10.836;2022-12-07T07:32:05;19.33;;;13.60;;
6113;SDS011;3087;48.392;10.836;2022-12-07T07:34:32;18.63;;;12.90;;
6113;SDS011;3087;48.392;10.836;2022-12-07T07:36:58;18.27;;;13.07;;
6113;SDS011;3087;48.392;10.836;2022-12-07T07:39:23;15.47;;;12.77;;
6113;SDS011;3087;48.392;10.836;2022-12-07T07:41:49;16.03;;;12.00;;
6113;SDS011;3087;48.392;10.836;2022-12-07T07:44:15;14.47;;;11.53;;
6113;SDS011;3087;48.392;10.836;2022-12-07T07:46:41;14.83;;;11.70;;
6113;SDS011;3087;48.392;10.836;2022-12-07T07:49:06;18.17;;;13.17;;
6113;SDS011;3087;48.392;10.836;2022-12-07T07:51:32;18.13;;;13.63;;
6113;SDS011;3087;48.392;10.836;2022-12-07T07:53:58;17.90;;;13.13;;
6113;SDS011;3087;48.392;10.836;2022-12-07T07:56:23;16.77;;;12.17;;
6113;SDS011;3087;48.392;10.836;2022-12-07T07:58:51;16.00;;;12.60;;
6113;SDS011;3087;48.392;10.836;2022-12-07T08:01:17;16.73;;;12.20;;
6113;SDS011;3087;48.392;10.836;2022-12-07T08:03:44;14.70;;;12.03;;
6113;SDS011;3087;48.392;10.836;2022-12-07T08:06:11;17.20;;;12.77;;
6113;SDS011;3087;48.392;10.836;2022-12-07T08:08:37;17.37;;;12.73;;
6113;SDS011;3087;48.392;10.836;2022-12-07T08:11:09;17.13;;;13.40;;
6113;SDS011;3087;48.392;10.836;2022-12-07T08:13:35;15.27;;;12.03;;
6113;SDS011;3087;48.392;10.836;2022-12-07T08:16:08;13.43;;;11.63;;
6113;SDS011;3087;48.392;10.836;2022-12-07T08:18:36;15.43;;;11.97;;
6113;SDS011;3087;48.392;10.836;2022-12-07T08:21:02;17.80;;;12.73;;
6113;SDS011;3087;48.392;10.836;2022-12-07T08:23:29;34.20;;;21.50;;
6113;SDS011;3087;48.392;10.836;2022-12-07T08:25:56;20.90;;;13.20;;
6113;SDS011;3087;48.392;10.836;2022-12-07T08:28:32;19.77;;;12.77;;
6113;SDS011;3087;48.392;10.836;2022-12-07T08:30:59;16.30;;;12.33;;
6113;SDS011;3087;48.392;10.836;2022-12-07T08:33:26;15.20;;;12.33;;
6113;SDS011;3087;48.392;10.836;2022-12-07T08:35:52;15.67;;;12.30;;
6113;SDS011;3087;48.392;10.836;2022-12-07T08:38:18;15.23;;;12.63;;
6113;SDS011;3087;48.392;10.836;2022-12-07T08:40:43;16.83;;;12.60;;
6113;SDS011;3087;48.392;10.836;2022-12-07T08:43:09;19.03;;;12.30;;
6113;SDS011;3087;48.392;10.836;2022-12-07T08:45:35;15.03;;;12.13;;
6113;SDS011;3087;48.392;10.836;2022-12-07T08:48:02;17.70;;;13.23;;
6113;SDS011;3087;48.392;10.836;2022-12-07T08:50:32;15.93;;;13.10;;
6113;SDS011;3087;48.392;10.836;2022-12-07T08:52:58;16.00;;;12.97;;
6113;SDS011;3087;48.392;10.836;2022-12-07T08:55:25;15.93;;;12.17;;
6113;SDS011;3087;48.392;10.836;2022-12-07T08:57:52;16.87;;;12.03;;
6113;SDS011;3087;48.392;10.836;2022-12-07T09:00:18;15.20;;;12.40;;
6113;SDS011;3087;48.392;10.836;2022-12-07T09:02:44;14.40;;;12.00;;
6113;SDS011;3087;48.392;10.836;2022-12-07T09:05:11;20.27;;;13.23;;
6113;SDS011;3087;48.392;10.836;2022-12-07T09:07:39;22.70;;;14.73;;
6113;SDS011;3087;48.392;10.836;2022-12-07T09:10:06;17.80;;;13.03;;
6113;SDS011;3087;48.392;10.836;2022-12-07T09:12:32;13.57;;;11.43;;
6113;SDS011;3087;48.392;10.836;2022-12-07T09:14:58;14.33;;;11.97;;
6113;SDS011;3087;48.392;10.836;2022-12-07T09:17:25;15.17;;;11.67;;
6113;SDS011;3087;48.392;10.836;2022-12-07T09:19:51;16.37;;;10.93;;
6113;SDS011;3087;48.392;10.836;2022-12-07T09:22:16;13.53;;;10.87;;
6113;SDS011;3087;48.392;10.836;2022-12-07T09:24:42;12.57;;;10.60;;
6113;SDS011;3087;48.392;10.836;2022-12-07T09:27:09;12.50;;;10.50;;
6113;SDS011;3087;48.392;10.836;2022-12-07T09:29:35;12.37;;;10.57;;
6113;SDS011;3087;48.392;10.836;2022-12-07T09:32:01;13.00;;;9.60;;
6113;SDS011;3087;48.392;10.836;2022-12-07T09:34:29;10.60;;;9.50;;
6113;SDS011;3087;48.392;10.836;2022-12-07T09:36:56;10.48;;;8.82;;
6113;SDS011;3087;48.392;10.836;2022-12-07T09:39:22;10.98;;;9.77;;
6113;SDS011;3087;48.392;10.836;2022-12-07T09:41:48;11.35;;;9.55;;
6113;SDS011;3087;48.392;10.836;2022-12-07T09:44:20;11.05;;;9.35;;
6113;SDS011;3087;48.392;10.836;2022-12-07T09:46:48;9.45;;;8.45;;
6113;SDS011;3087;48.392;10.836;2022-12-07T09:49:18;11.60;;;9.85;;
6113;SDS011;3087;48.392;10.836;2022-12-07T09:51:47;9.02;;;7.22;;
6113;SDS011;3087;48.392;10.836;2022-12-07T09:54:24;7.18;;;6.47;;
6113;SDS011;3087;48.392;10.836;2022-12-07T09:56:49;8.18;;;6.97;;
6113;SDS011;3087;48.392;10.836;2022-12-07T09:59:16;8.07;;;6.47;;
6113;SDS011;3087;48.392;10.836;2022-12-07T10:01:43;7.72;;;6.38;;
6113;SDS011;3087;48.392;10.836;2022-12-07T10:04:24;7.72;;;6.22;;
6113;SDS011;3087;48.392;10.836;2022-12-07T10:06:51;8.18;;;6.13;;
6113;SDS011;3087;48.392;10.836;2022-12-07T10:09:18;7.07;;;6.25;;
6113;SDS011;3087;48.392;10.836;2022-12-07T10:12:03;7.75;;;6.32;;
6113;SDS011;3087;48.392;10.836;2022-12-07T10:14:32;8.73;;;6.07;;
6113;SDS011;3087;48.392;10.836;2022-12-07T10:16:59;6.97;;;6.28;;
6113;SDS011;3087;48.392;10.836;2022-12-07T10:19:27;6.18;;;5.57;;
6113;SDS011;3087;48.392;10.836;2022-12-07T10:24:26;7.72;;;6.93;;
6113;SDS011;3087;48.392;10.836;2022-12-07T10:26:52;8.50;;;6.90;;
6113;SDS011;3087;48.392;10.836;2022-12-07T10:31:54;8.32;;;6.72;;
6113;SDS011;3087;48.392;10.836;2022-12-07T10:34:24;8.55;;;7.35;;
6113;SDS011;3087;48.392;10.836;2022-12-07T10:36:52;7.00;;;6.20;;
6113;SDS011;3087;48.392;10.836;2022-12-07T10:39:31;11.70;;;7.17;;
6113;SDS011;3087;48.392;10.836;2022-12-07T10:42:09;10.67;;;7.23;;
6113;SDS011;3087;48.392;10.836;2022-12-07T10:44:43;10.73;;;7.82;;
6113;SDS011;3087;48.392;10.836;2022-12-07T10:47:15;8.07;;;6.23;;
6113;SDS011;3087;48.392;10.836;2022-12-07T10:57:46;9.27;;;7.03;;
6113;SDS011;3087;48.392;10.836;2022-12-07T11:00:25;8.73;;;7.30;;
6113;SDS011;3087;48.392;10.836;2022-12-07T11:05:56;10.13;;;7.80;;
6113;SDS011;3087;48.392;10.836;2022-12-07T11:08:47;10.17;;;7.37;;
6113;SDS011;3087;48.392;10.836;2022-12-07T11:11:35;8.93;;;7.33;;
6113;SDS011;3087;48.392;10.836;2022-12-07T11:20:26;12.87;;;8.40;;
6113;SDS011;3087;48.392;10.836;2022-12-07T11:23:09;11.20;;;7.60;;
6113;SDS011;3087;48.392;10.836;2022-12-07T11:34:27;9.80;;;7.00;;
6113;SDS011;3087;48.392;10.836;2022-12-07T11:37:13;11.80;;;6.87;;
6113;SDS011;3087;48.392;10.836;2022-12-07T11:39:46;10.00;;;7.27;;
6113;SDS011;3087;48.392;10.836;2022-12-07T11:42:21;8.53;;;6.90;;
6113;SDS011;3087;48.392;10.836;2022-12-07T11:49:58;9.67;;;6.97;;
6113;SDS011;3087;48.392;10.836;2022-12-07T11:55:24;8.87;;;6.37;;
6113;SDS011;3087;48.392;10.836;2022-12-07T11:57:54;11.23;;;6.17;;
6113;SDS011;3087;48.392;10.836;2022-12-07T12:00:28;9.53;;;7.07;;
6113;SDS011;3087;48.392;10.836;2022-12-07T12:03:15;7.77;;;6.23;;
6113;SDS011;3087;48.392;10.836;2022-12-07T12:05:47;7.70;;;6.70;;
6113;SDS011;3087;48.392;10.836;2022-12-07T12:08:18;9.30;;;6.57;;
6113;SDS011;3087;48.392;10.836;2022-12-07T12:22:17;6.60;;;4.73;;
6113;SDS011;3087;48.392;10.836;2022-12-07T12:24:47;6.73;;;5.43;;
6113;SDS011;3087;48.392;10.836;2022-12-07T12:27:20;7.57;;;5.80;;
6113;SDS011;3087;48.392;10.836;2022-12-07T12:29:56;5.93;;;4.97;;
6113;SDS011;3087;48.392;10.836;2022-12-07T12:32:30;6.87;;;5.77;;
6113;SDS011;3087;48.392;10.836;2022-12-07T12:35:27;6.73;;;5.53;;
6113;SDS011;3087;48.392;10.836;2022-12-07T12:38:20;6.50;;;5.00;;
6113;SDS011;3087;48.392;10.836;2022-12-07T12:40:52;7.33;;;4.83;;
6113;SDS011;3087;48.392;10.836;2022-12-07T12:48:56;8.27;;;5.97;;
6113;SDS011;3087;48.392;10.836;2022-12-07T12:51:46;9.47;;;6.73;;
6113;SDS011;3087;48.392;10.836;2022-12-07T13:01:50;8.53;;;5.30;;
6113;SDS011;3087;48.392;10.836;2022-12-07T13:06:53;8.53;;;6.13;;
6113;SDS011;3087;48.392;10.836;2022-12-07T13:09:23;8.23;;;6.83;;
6113;SDS011;3087;48.392;10.836;2022-12-07T13:11:50;8.23;;;5.70;;
6113;SDS011;3087;48.392;10.836;2022-12-07T13:14:43;9.20;;;6.70;;
6113;SDS011;3087;48.392;10.836;2022-12-07T13:19:59;5.90;;;5.23;;
6113;SDS011;3087;48.392;10.836;2022-12-07T13:27:27;9.93;;;7.30;;
6113;SDS011;3087;48.392;10.836;2022-12-07T13:29:54;8.13;;;6.30;;
6113;SDS011;3087;48.392;10.836;2022-12-07T13:32:28;12.03;;;7.90;;
6113;SDS011;3087;48.392;10.836;2022-12-07T13:34:55;8.57;;;6.17;;
6113;SDS011;3087;48.392;10.836;2022-12-07T13:39:54;6.77;;;5.93;;
6113;SDS011;3087;48.392;10.836;2022-12-07T13:42:40;7.50;;;6.10;;
6113;SDS011;3087;48.392;10.836;2022-12-07T13:45:25;7.00;;;6.07;;
6113;SDS011;3087;48.392;10.836;2022-12-07T13:48:30;9.60;;;5.67;;
6113;SDS011;3087;48.392;10.836;2022-12-07T13:50:58;7.90;;;5.40;;
6113;SDS011;3087;48.392;10.836;2022-12-07T13:53:25;6.77;;;5.27;;
6113;SDS011;3087;48.392;10.836;2022-12-07T13:55:55;7.80;;;5.67;;
6113;SDS011;3087;48.392;10.836;2022-12-07T13:58:21;11.00;;;6.40;;
6113;SDS011;3087;48.392;10.836;2022-12-07T14:00:47;10.17;;;6.83;;
6113;SDS011;3087;48.392;10.836;2022-12-07T14:05:40;6.60;;;5.73;;
6113;SDS011;3087;48.392;10.836;2022-12-07T14:10:40;7.43;;;5.20;;
6113;SDS011;3087;48.392;10.836;2022-12-07T14:16:01;11.30;;;6.27;;
6113;SDS011;3087;48.392;10.836;2022-12-07T14:18:38;8.27;;;5.87;;
6113;SDS011;3087;48.392;10.836;2022-12-07T14:23:34;7.53;;;5.67;;
6113;SDS011;3087;48.392;10.836;2022-12-07T14:26:06;6.07;;;5.47;;
6113;SDS011;3087;48.392;10.836;2022-12-07T14:28:36;8.07;;;5.37;;
6113;SDS011;3087;48.392;10.836;2022-12-07T14:31:03;6.77;;;5.50;;
6113;SDS011;3087;48.392;10.836;2022-12-07T14:33:33;7.83;;;5.87;;
6113;SDS011;3087;48.392;10.836;2022-12-07T14:35:58;6.20;;;5.40;;
6113;SDS011;3087;48.392;10.836;2022-12-07T14:38:24;6.83;;;5.67;;
6113;SDS011;3087;48.392;10.836;2022-12-07T14:40:54;7.03;;;5.10;;
6113;SDS011;3087;48.392;10.836;2022-12-07T14:43:40;9.10;;;5.70;;
6113;SDS011;3087;48.392;10.836;2022-12-07T14:46:06;12.33;;;5.57;;
6113;SDS011;3087;48.392;10.836;2022-12-07T14:48:32;11.17;;;6.00;;
6113;SDS011;3087;48.392;10.836;2022-12-07T14:50:57;8.13;;;6.10;;
6113;SDS011;3087;48.392;10.836;2022-12-07T14:53:25;7.27;;;5.60;;
6113;SDS011;3087;48.392;10.836;2022-12-07T14:55:56;6.20;;;5.00;;
6113;SDS011;3087;48.392;10.836;2022-12-07T14:58:22;6.87;;;5.27;;
6113;SDS011;3087;48.392;10.836;2022-12-07T15:00:48;8.10;;;6.70;;
6113;SDS011;3087;48.392;10.836;2022-12-07T15:03:14;6.77;;;5.00;;
6113;SDS011;3087;48.392;10.836;2022-12-07T15:05:39;7.80;;;5.37;;
6113;SDS011;3087;48.392;10.836;2022-12-07T15:08:06;8.27;;;6.27;;
6113;SDS011;3087;48.392;10.836;2022-12-07T15:10:33;7.27;;;5.90;;
6113;SDS011;3087;48.392;10.836;2022-12-07T15:13:03;9.60;;;6.23;;
6113;SDS011;3087;48.392;10.836;2022-12-07T15:15:48;7.93;;;6.00;;
6113;SDS011;3087;48.392;10.836;2022-12-07T15:18:15;9.13;;;5.87;;
6113;SDS011;3087;48.392;10.836;2022-12-07T15:20:41;8.97;;;5.83;;
6113;SDS011;3087;48.392;10.836;2022-12-07T15:23:07;7.10;;;5.87;;
6113;SDS011;3087;48.392;10.836;2022-12-07T15:25:33;9.50;;;6.67;;
6113;SDS011;3087;48.392;10.836;2022-12-07T15:27:59;12.83;;;8.40;;
6113;SDS011;3087;48.392;10.836;2022-12-07T15:30:25;8.50;;;7.03;;
6113;SDS011;3087;48.392;10.836;2022-12-07T15:32:52;8.60;;;6.30;;
6113;SDS011;3087;48.392;10.836;2022-12-07T15:35:18;7.63;;;6.50;;
6113;SDS011;3087;48.392;10.836;2022-12-07T15:37:44;8.23;;;6.33;;
6113;SDS011;3087;48.392;10.836;2022-12-07T15:40:10;10.27;;;7.20;;
6113;SDS011;3087;48.392;10.836;2022-12-07T15:42:36;10.13;;;7.20;;
6113;SDS011;3087;48.392;10.836;2022-12-07T15:45:03;11.13;;;7.13;;
6113;SDS011;3087;48.392;10.836;2022-12-07T15:47:34;7.87;;;6.37;;
6113;SDS011;3087;48.392;10.836;2022-12-07T15:50:05;9.23;;;6.03;;
6113;SDS011;3087;48.392;10.836;2022-12-07T15:52:32;7.13;;;5.87;;
6113;SDS011;3087;48.392;10.836;2022-12-07T15:54:58;9.10;;;6.27;;
6113;SDS011;3087;48.392;10.836;2022-12-07T15:57:25;10.07;;;5.93;;
6113;SDS011;3087;48.392;10.836;2022-12-07T15:59:51;6.83;;;5.73;;
6113;SDS011;3087;48.392;10.836;2022-12-07T16:02:17;9.20;;;6.17;;
6113;SDS011;3087;48.392;10.836;2022-12-07T16:04:43;15.80;;;6.63;;
6113;SDS011;3087;48.392;10.836;2022-12-07T16:07:10;9.23;;;6.17;;
6113;SDS011;3087;48.392;10.836;2022-12-07T16:09:36;14.60;;;6.77;;
6113;SDS011;3087;48.392;10.836;2022-12-07T16:12:03;12.43;;;6.50;;
6113;SDS011;3087;48.392;10.836;2022-12-07T16:14:29;10.47;;;7.03;;
6113;SDS011;3087;48.392;10.836;2022-12-07T16:16:57;9.70;;;6.60;;
6113;SDS011;3087;48.392;10.836;2022-12-07T16:19:22;11.00;;;7.73;;
6113;SDS011;3087;48.392;10.836;2022-12-07T16:21:48;19.97;;;8.90;;
6113;SDS011;3087;48.392;10.836;2022-12-07T16:24:14;13.90;;;9.37;;
6113;SDS011;3087;48.392;10.836;2022-12-07T16:26:41;14.00;;;8.13;;
6113;SDS011;3087;48.392;10.836;2022-12-07T16:29:07;12.43;;;8.93;;
6113;SDS011;3087;48.392;10.836;2022-12-07T16:31:38;16.93;;;9.17;;
6113;SDS011;3087;48.392;10.836;2022-12-07T16:34:04;13.17;;;8.03;;
6113;SDS011;3087;48.392;10.836;2022-12-07T16:36:30;15.30;;;8.73;;
6113;SDS011;3087;48.392;10.836;2022-12-07T16:38:57;17.93;;;10.20;;
6113;SDS011;3087;48.392;10.836;2022-12-07T16:41:24;15.73;;;10.37;;
6113;SDS011;3087;48.392;10.836;2022-12-07T16:43:50;16.50;;;11.10;;
6113;SDS011;3087;48.392;10.836;2022-12-07T16:46:15;12.83;;;10.00;;
6113;SDS011;3087;48.392;10.836;2022-12-07T16:48:42;16.13;;;10.83;;
6113;SDS011;3087;48.392;10.836;2022-12-07T16:51:08;14.37;;;10.40;;
6113;SDS011;3087;48.392;10.836;2022-12-07T16:53:35;28.97;;;17.17;;
6113;SDS011;3087;48.392;10.836;2022-12-07T16:56:02;40.37;;;22.60;;
6113;SDS011;3087;48.392;10.836;2022-12-07T16:58:28;30.57;;;19.00;;
6113;SDS011;3087;48.392;10.836;2022-12-07T17:00:55;37.10;;;21.80;;
6113;SDS011;3087;48.392;10.836;2022-12-07T17:03:21;20.37;;;12.77;;
6113;SDS011;3087;48.392;10.836;2022-12-07T17:05:47;13.53;;;10.70;;
6113;SDS011;3087;48.392;10.836;2022-12-07T17:08:14;18.50;;;10.67;;
6113;SDS011;3087;48.392;10.836;2022-12-07T17:10:40;14.87;;;10.67;;
6113;SDS011;3087;48.392;10.836;2022-12-07T17:13:08;14.73;;;10.23;;